sensor_id;sensor_type;location;lat;lon;timestamp;P1;durP1;ratioP1;P2;durP2;ratioP2
23718;SDS011;43322;52.230;5.702;2023-03-14T00:02:25;12.15;;;5.25;;
23718;SDS011;43322;52.230;5.702;2023-03-14T00:04:53;16.80;;;4.90;;
23718;SDS011;43322;52.230;5.702;2023-03-14T00:07:21;17.98;;;5.30;;
23718;SDS011;43322;52.230;5.702;2023-03-14T00:09:49;18.42;;;5.07;;
23718;SDS011;43322;52.230;5.702;2023-03-14T00:12:17;16.95;;;5.22;;
23718;SDS011;43322;52.230;5.702;2023-03-14T00:14:44;17.50;;;5.32;;
23718;SDS011;43322;52.230;5.702;2023-03-14T00:17:11;15.63;;;5.60;;
23718;SDS011;43322;52.230;5.702;2023-03-14T00:19:38;14.55;;;5.63;;
23718;SDS011;43322;52.230;5.702;2023-03-14T00:22:05;21.27;;;5.82;;
23718;SDS011;43322;52.230;5.702;2023-03-14T00:24:32;19.15;;;6.63;;
23718;SDS011;43322;52.230;5.702;2023-03-14T00:26:59;12.75;;;5.90;;
23718;SDS011;43322;52.230;5.702;2023-03-14T00:29:28;13.65;;;5.53;;
23718;SDS011;43322;52.230;5.702;2023-03-14T00:31:54;22.30;;;6.25;;
23718;SDS011;43322;52.230;5.702;2023-03-14T00:34:21;18.20;;;5.80;;
23718;SDS011;43322;52.230;5.702;2023-03-14T00:36:48;12.05;;;5.00;;
23718;SDS011;43322;52.230;5.702;2023-03-14T00:39:15;18.98;;;5.20;;
23718;SDS011;43322;52.230;5.702;2023-03-14T00:41:42;19.38;;;5.65;;
23718;SDS011;43322;52.230;5.702;2023-03-14T00:44:09;18.15;;;5.07;;
23718;SDS011;43322;52.230;5.702;2023-03-14T00:46:37;17.40;;;4.70;;
23718;SDS011;43322;52.230;5.702;2023-03-14T00:49:04;14.52;;;4.25;;
23718;SDS011;43322;52.230;5.702;2023-03-14T00:51:31;19.58;;;4.35;;
23718;SDS011;43322;52.230;5.702;2023-03-14T00:53:59;16.75;;;4.25;;
23718;SDS011;43322;52.230;5.702;2023-03-14T00:56:26;20.92;;;4.43;;
23718;SDS011;43322;52.230;5.702;2023-03-14T00:58:53;14.10;;;3.90;;
23718;SDS011;43322;52.230;5.702;2023-03-14T01:01:20;15.75;;;4.32;;
23718;SDS011;43322;52.230;5.702;2023-03-14T01:03:50;12.38;;;3.00;;
23718;SDS011;43322;52.230;5.702;2023-03-14T01:06:18;8.77;;;2.95;;
23718;SDS011;43322;52.230;5.702;2023-03-14T01:08:48;12.85;;;2.50;;
23718;SDS011;43322;52.230;5.702;2023-03-14T01:11:15;16.50;;;3.20;;
23718;SDS011;43322;52.230;5.702;2023-03-14T01:13:44;12.45;;;2.53;;
23718;SDS011;43322;52.230;5.702;2023-03-14T01:16:12;14.07;;;2.97;;
23718;SDS011;43322;52.230;5.702;2023-03-14T01:18:40;8.65;;;2.45;;
23718;SDS011;43322;52.230;5.702;2023-03-14T01:21:11;10.70;;;3.15;;
23718;SDS011;43322;52.230;5.702;2023-03-14T01:23:39;19.38;;;3.25;;
23718;SDS011;43322;52.230;5.702;2023-03-14T01:26:08;10.60;;;3.58;;
23718;SDS011;43322;52.230;5.702;2023-03-14T01:28:36;8.68;;;2.90;;
23718;SDS011;43322;52.230;5.702;2023-03-14T01:31:03;15.85;;;3.28;;
23718;SDS011;43322;52.230;5.702;2023-03-14T01:33:31;12.85;;;3.10;;
23718;SDS011;43322;52.230;5.702;2023-03-14T01:35:58;16.52;;;3.30;;
23718;SDS011;43322;52.230;5.702;2023-03-14T01:38:28;6.68;;;3.00;;
23718;SDS011;43322;52.230;5.702;2023-03-14T01:40:55;8.98;;;2.80;;
23718;SDS011;43322;52.230;5.702;2023-03-14T01:43:22;8.45;;;2.40;;
23718;SDS011;43322;52.230;5.702;2023-03-14T01:49:01;7.63;;;2.20;;
23718;SDS011;43322;52.230;5.702;2023-03-14T01:51:33;4.70;;;2.67;;
23718;SDS011;43322;52.230;5.702;2023-03-14T01:54:08;7.90;;;2.38;;
23718;SDS011;43322;52.230;5.702;2023-03-14T01:56:39;9.07;;;3.03;;
23718;SDS011;43322;52.230;5.702;2023-03-14T01:59:10;10.18;;;2.95;;
23718;SDS011;43322;52.230;5.702;2023-03-14T02:01:37;12.20;;;2.92;;
23718;SDS011;43322;52.230;5.702;2023-03-14T02:04:07;6.10;;;2.50;;
23718;SDS011;43322;52.230;5.702;2023-03-14T02:06:36;8.75;;;2.58;;
23718;SDS011;43322;52.230;5.702;2023-03-14T02:09:11;13.18;;;2.88;;
23718;SDS011;43322;52.230;5.702;2023-03-14T02:11:38;8.27;;;2.30;;
23718;SDS011;43322;52.230;5.702;2023-03-14T02:14:05;15.38;;;3.28;;
23718;SDS011;43322;52.230;5.702;2023-03-14T02:16:35;10.48;;;2.60;;
23718;SDS011;43322;52.230;5.702;2023-03-14T02:19:02;8.60;;;2.05;;
23718;SDS011;43322;52.230;5.702;2023-03-14T02:21:34;8.23;;;2.58;;
23718;SDS011;43322;52.230;5.702;2023-03-14T02:24:13;9.88;;;2.83;;
23718;SDS011;43322;52.230;5.702;2023-03-14T02:29:45;10.35;;;2.63;;
23718;SDS011;43322;52.230;5.702;2023-03-14T02:32:16;13.32;;;2.65;;
23718;SDS011;43322;52.230;5.702;2023-03-14T02:34:45;8.75;;;2.45;;
23718;SDS011;43322;52.230;5.702;2023-03-14T02:37:16;16.55;;;2.17;;
23718;SDS011;43322;52.230;5.702;2023-03-14T02:39:47;13.00;;;2.75;;
23718;SDS011;43322;52.230;5.702;2023-03-14T02:42:14;8.48;;;2.90;;
23718;SDS011;43322;52.230;5.702;2023-03-14T02:44:50;11.13;;;3.00;;
23718;SDS011;43322;52.230;5.702;2023-03-14T02:47:20;8.73;;;2.60;;
23718;SDS011;43322;52.230;5.702;2023-03-14T02:49:52;10.23;;;2.55;;
23718;SDS011;43322;52.230;5.702;2023-03-14T02:52:23;8.55;;;2.35;;
23718;SDS011;43322;52.230;5.702;2023-03-14T02:54:50;8.15;;;2.35;;
23718;SDS011;43322;52.230;5.702;2023-03-14T02:57:17;7.55;;;2.50;;
23718;SDS011;43322;52.230;5.702;2023-03-14T02:59:44;8.48;;;2.65;;
23718;SDS011;43322;52.230;5.702;2023-03-14T03:02:12;12.45;;;3.45;;
23718;SDS011;43322;52.230;5.702;2023-03-14T03:04:39;12.18;;;3.15;;
23718;SDS011;43322;52.230;5.702;2023-03-14T03:07:06;9.27;;;3.53;;
23718;SDS011;43322;52.230;5.702;2023-03-14T03:09:33;10.80;;;3.80;;
23718;SDS011;43322;52.230;5.702;2023-03-14T03:12:00;9.50;;;3.72;;
23718;SDS011;43322;52.230;5.702;2023-03-14T03:14:27;13.27;;;4.45;;
23718;SDS011;43322;52.230;5.702;2023-03-14T03:16:54;10.38;;;4.00;;
23718;SDS011;43322;52.230;5.702;2023-03-14T03:19:22;8.63;;;3.95;;
23718;SDS011;43322;52.230;5.702;2023-03-14T03:21:49;12.52;;;3.97;;
23718;SDS011;43322;52.230;5.702;2023-03-14T03:24:16;10.65;;;3.50;;
23718;SDS011;43322;52.230;5.702;2023-03-14T03:26:43;8.95;;;3.67;;
23718;SDS011;43322;52.230;5.702;2023-03-14T03:29:10;10.88;;;3.72;;
23718;SDS011;43322;52.230;5.702;2023-03-14T03:31:37;12.25;;;3.60;;
23718;SDS011;43322;52.230;5.702;2023-03-14T03:34:04;14.52;;;4.03;;
23718;SDS011;43322;52.230;5.702;2023-03-14T03:36:32;12.52;;;3.70;;
23718;SDS011;43322;52.230;5.702;2023-03-14T03:38:59;8.57;;;3.60;;
23718;SDS011;43322;52.230;5.702;2023-03-14T03:41:26;9.48;;;3.55;;
23718;SDS011;43322;52.230;5.702;2023-03-14T03:43:52;8.63;;;4.00;;
23718;SDS011;43322;52.230;5.702;2023-03-14T03:46:19;11.93;;;3.60;;
23718;SDS011;43322;52.230;5.702;2023-03-14T03:48:46;9.18;;;3.15;;
23718;SDS011;43322;52.230;5.702;2023-03-14T03:51:13;11.38;;;3.47;;
23718;SDS011;43322;52.230;5.702;2023-03-14T03:53:42;9.20;;;3.35;;
23718;SDS011;43322;52.230;5.702;2023-03-14T03:56:09;10.48;;;3.50;;
23718;SDS011;43322;52.230;5.702;2023-03-14T03:58:36;10.02;;;3.78;;
23718;SDS011;43322;52.230;5.702;2023-03-14T04:01:04;9.07;;;3.70;;
23718;SDS011;43322;52.230;5.702;2023-03-14T04:03:32;6.43;;;3.45;;
23718;SDS011;43322;52.230;5.702;2023-03-14T04:05:59;10.25;;;3.72;;
23718;SDS011;43322;52.230;5.702;2023-03-14T04:08:26;8.40;;;3.67;;
23718;SDS011;43322;52.230;5.702;2023-03-14T04:10:57;12.27;;;3.72;;
23718;SDS011;43322;52.230;5.702;2023-03-14T04:13:24;13.55;;;3.88;;
23718;SDS011;43322;52.230;5.702;2023-03-14T04:15:52;11.13;;;3.38;;
23718;SDS011;43322;52.230;5.702;2023-03-14T04:18:20;9.30;;;3.78;;
23718;SDS011;43322;52.230;5.702;2023-03-14T04:20:50;10.25;;;3.17;;
23718;SDS011;43322;52.230;5.702;2023-03-14T04:23:17;9.25;;;3.40;;
23718;SDS011;43322;52.230;5.702;2023-03-14T04:25:44;10.30;;;3.42;;
23718;SDS011;43322;52.230;5.702;2023-03-14T04:28:12;11.30;;;3.85;;
23718;SDS011;43322;52.230;5.702;2023-03-14T04:30:39;8.65;;;3.22;;
23718;SDS011;43322;52.230;5.702;2023-03-14T04:33:09;8.32;;;2.97;;
23718;SDS011;43322;52.230;5.702;2023-03-14T04:35:37;6.68;;;3.15;;
23718;SDS011;43322;52.230;5.702;2023-03-14T04:38:04;11.25;;;3.25;;
23718;SDS011;43322;52.230;5.702;2023-03-14T04:40:31;7.82;;;3.22;;
23718;SDS011;43322;52.230;5.702;2023-03-14T04:42:58;8.32;;;3.47;;
23718;SDS011;43322;52.230;5.702;2023-03-14T04:45:26;12.45;;;3.90;;
23718;SDS011;43322;52.230;5.702;2023-03-14T04:47:53;9.27;;;2.92;;
23718;SDS011;43322;52.230;5.702;2023-03-14T04:50:20;15.23;;;3.83;;
23718;SDS011;43322;52.230;5.702;2023-03-14T04:52:47;9.18;;;3.00;;
23718;SDS011;43322;52.230;5.702;2023-03-14T04:55:14;12.40;;;3.05;;
23718;SDS011;43322;52.230;5.702;2023-03-14T04:57:41;10.98;;;3.47;;
23718;SDS011;43322;52.230;5.702;2023-03-14T05:00:08;11.05;;;2.63;;
23718;SDS011;43322;52.230;5.702;2023-03-14T05:02:38;10.98;;;2.72;;
23718;SDS011;43322;52.230;5.702;2023-03-14T05:05:05;10.30;;;3.05;;
23718;SDS011;43322;52.230;5.702;2023-03-14T05:07:32;10.05;;;3.55;;
23718;SDS011;43322;52.230;5.702;2023-03-14T05:09:59;12.23;;;3.35;;
23718;SDS011;43322;52.230;5.702;2023-03-14T05:12:26;13.43;;;3.42;;
23718;SDS011;43322;52.230;5.702;2023-03-14T05:14:53;11.32;;;3.33;;
23718;SDS011;43322;52.230;5.702;2023-03-14T05:17:20;8.48;;;3.42;;
23718;SDS011;43322;52.230;5.702;2023-03-14T05:19:48;12.20;;;3.28;;
23718;SDS011;43322;52.230;5.702;2023-03-14T05:22:15;9.32;;;3.33;;
23718;SDS011;43322;52.230;5.702;2023-03-14T05:24:42;16.35;;;3.78;;
23718;SDS011;43322;52.230;5.702;2023-03-14T05:27:09;7.32;;;3.30;;
23718;SDS011;43322;52.230;5.702;2023-03-14T05:29:36;7.22;;;3.30;;
23718;SDS011;43322;52.230;5.702;2023-03-14T05:32:03;10.82;;;3.70;;
23718;SDS011;43322;52.230;5.702;2023-03-14T05:34:30;7.45;;;3.80;;
23718;SDS011;43322;52.230;5.702;2023-03-14T05:36:58;8.45;;;3.40;;
23718;SDS011;43322;52.230;5.702;2023-03-14T05:39:25;11.35;;;3.70;;
23718;SDS011;43322;52.230;5.702;2023-03-14T05:41:52;13.02;;;3.92;;
23718;SDS011;43322;52.230;5.702;2023-03-14T05:44:20;8.85;;;4.00;;
23718;SDS011;43322;52.230;5.702;2023-03-14T05:46:47;11.15;;;4.13;;
23718;SDS011;43322;52.230;5.702;2023-03-14T05:49:14;7.10;;;3.70;;
23718;SDS011;43322;52.230;5.702;2023-03-14T05:51:41;14.23;;;4.13;;
23718;SDS011;43322;52.230;5.702;2023-03-14T05:54:10;10.35;;;4.18;;
23718;SDS011;43322;52.230;5.702;2023-03-14T05:56:37;9.85;;;4.28;;
23718;SDS011;43322;52.230;5.702;2023-03-14T05:59:03;9.63;;;4.25;;
23718;SDS011;43322;52.230;5.702;2023-03-14T06:01:32;13.05;;;4.70;;
23718;SDS011;43322;52.230;5.702;2023-03-14T06:03:59;10.98;;;4.90;;
23718;SDS011;43322;52.230;5.702;2023-03-14T06:06:26;10.80;;;5.07;;
23718;SDS011;43322;52.230;5.702;2023-03-14T06:08:53;17.15;;;5.30;;
23718;SDS011;43322;52.230;5.702;2023-03-14T06:11:22;10.27;;;4.78;;
23718;SDS011;43322;52.230;5.702;2023-03-14T06:13:49;12.48;;;5.10;;
23718;SDS011;43322;52.230;5.702;2023-03-14T06:16:17;9.02;;;4.82;;
23718;SDS011;43322;52.230;5.702;2023-03-14T06:18:43;8.73;;;4.97;;
23718;SDS011;43322;52.230;5.702;2023-03-14T06:21:11;11.10;;;5.18;;
23718;SDS011;43322;52.230;5.702;2023-03-14T06:23:38;10.95;;;5.43;;
23718;SDS011;43322;52.230;5.702;2023-03-14T06:26:05;9.75;;;5.50;;
23718;SDS011;43322;52.230;5.702;2023-03-14T06:28:33;8.05;;;4.93;;
23718;SDS011;43322;52.230;5.702;2023-03-14T06:31:01;10.77;;;5.70;;
23718;SDS011;43322;52.230;5.702;2023-03-14T06:33:27;7.15;;;5.03;;
23718;SDS011;43322;52.230;5.702;2023-03-14T06:35:55;6.88;;;5.00;;
23718;SDS011;43322;52.230;5.702;2023-03-14T06:38:22;11.80;;;5.55;;
23718;SDS011;43322;52.230;5.702;2023-03-14T06:40:49;12.90;;;5.45;;
23718;SDS011;43322;52.230;5.702;2023-03-14T06:43:16;11.85;;;6.45;;
23718;SDS011;43322;52.230;5.702;2023-03-14T06:45:44;9.90;;;5.68;;
23718;SDS011;43322;52.230;5.702;2023-03-14T06:48:11;10.60;;;5.65;;
23718;SDS011;43322;52.230;5.702;2023-03-14T06:50:38;10.60;;;6.05;;
23718;SDS011;43322;52.230;5.702;2023-03-14T06:53:05;9.57;;;5.65;;
23718;SDS011;43322;52.230;5.702;2023-03-14T06:55:32;11.73;;;6.22;;
23718;SDS011;43322;52.230;5.702;2023-03-14T06:57:59;9.23;;;6.03;;
23718;SDS011;43322;52.230;5.702;2023-03-14T07:00:26;3.08;;;2.70;;
23718;SDS011;43322;52.230;5.702;2023-03-14T07:02:55;4.15;;;2.40;;
23718;SDS011;43322;52.230;5.702;2023-03-14T07:05:22;2.80;;;2.10;;
23718;SDS011;43322;52.230;5.702;2023-03-14T07:07:49;1.50;;;1.40;;
23718;SDS011;43322;52.230;5.702;2023-03-14T07:10:15;3.47;;;1.40;;
23718;SDS011;43322;52.230;5.702;2023-03-14T07:12:43;2.40;;;1.45;;
23718;SDS011;43322;52.230;5.702;2023-03-14T07:15:10;1.88;;;1.02;;
23718;SDS011;43322;52.230;5.702;2023-03-14T07:17:37;2.95;;;1.15;;
23718;SDS011;43322;52.230;5.702;2023-03-14T07:20:06;2.10;;;0.70;;
23718;SDS011;43322;52.230;5.702;2023-03-14T07:22:34;1.67;;;0.90;;
23718;SDS011;43322;52.230;5.702;2023-03-14T07:25:01;2.13;;;0.75;;
23718;SDS011;43322;52.230;5.702;2023-03-14T07:27:29;0.90;;;0.90;;
23718;SDS011;43322;52.230;5.702;2023-03-14T07:29:56;1.95;;;0.85;;
23718;SDS011;43322;52.230;5.702;2023-03-14T07:32:23;4.03;;;1.45;;
23718;SDS011;43322;52.230;5.702;2023-03-14T07:34:50;1.27;;;0.90;;
23718;SDS011;43322;52.230;5.702;2023-03-14T07:37:19;0.98;;;0.85;;
23718;SDS011;43322;52.230;5.702;2023-03-14T07:39:45;2.88;;;0.90;;
23718;SDS011;43322;52.230;5.702;2023-03-14T07:42:12;1.05;;;0.95;;
23718;SDS011;43322;52.230;5.702;2023-03-14T07:44:39;0.73;;;0.73;;
23718;SDS011;43322;52.230;5.702;2023-03-14T07:47:06;0.98;;;0.98;;
23718;SDS011;43322;52.230;5.702;2023-03-14T07:49:33;3.17;;;0.93;;
23718;SDS011;43322;52.230;5.702;2023-03-14T07:52:00;1.02;;;1.02;;
23718;SDS011;43322;52.230;5.702;2023-03-14T07:54:29;0.80;;;0.80;;
23718;SDS011;43322;52.230;5.702;2023-03-14T07:56:56;2.05;;;0.77;;
23718;SDS011;43322;52.230;5.702;2023-03-14T07:59:25;2.13;;;1.05;;
23718;SDS011;43322;52.230;5.702;2023-03-14T08:01:52;3.90;;;1.10;;
23718;SDS011;43322;52.230;5.702;2023-03-14T08:04:19;3.22;;;1.65;;
23718;SDS011;43322;52.230;5.702;2023-03-14T08:06:46;3.03;;;1.00;;
23718;SDS011;43322;52.230;5.702;2023-03-14T08:09:12;5.57;;;1.55;;
23718;SDS011;43322;52.230;5.702;2023-03-14T08:11:41;6.43;;;1.83;;
23718;SDS011;43322;52.230;5.702;2023-03-14T08:14:07;4.05;;;1.30;;
23718;SDS011;43322;52.230;5.702;2023-03-14T08:16:36;3.35;;;0.95;;
23718;SDS011;43322;52.230;5.702;2023-03-14T08:19:03;4.05;;;1.30;;
23718;SDS011;43322;52.230;5.702;2023-03-14T08:21:30;2.85;;;1.30;;
23718;SDS011;43322;52.230;5.702;2023-03-14T08:23:56;4.13;;;1.10;;
23718;SDS011;43322;52.230;5.702;2023-03-14T08:26:23;4.30;;;1.40;;
23718;SDS011;43322;52.230;5.702;2023-03-14T08:28:51;3.22;;;1.17;;
23718;SDS011;43322;52.230;5.702;2023-03-14T08:31:18;4.47;;;1.02;;
23718;SDS011;43322;52.230;5.702;2023-03-14T08:33:45;2.90;;;0.90;;
23718;SDS011;43322;52.230;5.702;2023-03-14T08:36:12;3.28;;;0.90;;
23718;SDS011;43322;52.230;5.702;2023-03-14T08:38:39;1.95;;;1.17;;
23718;SDS011;43322;52.230;5.702;2023-03-14T08:41:08;3.55;;;1.58;;
23718;SDS011;43322;52.230;5.702;2023-03-14T08:43:36;5.80;;;1.17;;
23718;SDS011;43322;52.230;5.702;2023-03-14T08:46:05;5.10;;;1.23;;
23718;SDS011;43322;52.230;5.702;2023-03-14T08:48:32;7.03;;;0.90;;
23718;SDS011;43322;52.230;5.702;2023-03-14T08:51:03;3.05;;;0.77;;
23718;SDS011;43322;52.230;5.702;2023-03-14T08:53:31;1.80;;;0.85;;
23718;SDS011;43322;52.230;5.702;2023-03-14T08:55:58;2.72;;;0.73;;
23718;SDS011;43322;52.230;5.702;2023-03-14T08:58:25;1.65;;;0.52;;
23718;SDS011;43322;52.230;5.702;2023-03-14T09:00:52;2.38;;;0.73;;
23718;SDS011;43322;52.230;5.702;2023-03-14T09:03:20;4.18;;;0.77;;
23718;SDS011;43322;52.230;5.702;2023-03-14T09:05:48;0.73;;;0.50;;
23718;SDS011;43322;52.230;5.702;2023-03-14T09:08:15;4.40;;;0.70;;
23718;SDS011;43322;52.230;5.702;2023-03-14T09:10:42;4.80;;;0.88;;
23718;SDS011;43322;52.230;5.702;2023-03-14T09:13:08;1.95;;;0.65;;
23718;SDS011;43322;52.230;5.702;2023-03-14T09:15:36;1.63;;;0.57;;
23718;SDS011;43322;52.230;5.702;2023-03-14T09:18:02;0.90;;;0.50;;
23718;SDS011;43322;52.230;5.702;2023-03-14T09:20:31;4.10;;;1.00;;
23718;SDS011;43322;52.230;5.702;2023-03-14T09:22:58;2.00;;;0.65;;
23718;SDS011;43322;52.230;5.702;2023-03-14T09:25:25;2.13;;;0.85;;
23718;SDS011;43322;52.230;5.702;2023-03-14T09:27:51;4.35;;;1.42;;
23718;SDS011;43322;52.230;5.702;2023-03-14T09:30:18;8.77;;;1.25;;
23718;SDS011;43322;52.230;5.702;2023-03-14T09:32:45;6.45;;;1.23;;
23718;SDS011;43322;52.230;5.702;2023-03-14T09:35:12;8.13;;;1.60;;
23718;SDS011;43322;52.230;5.702;2023-03-14T09:37:46;6.78;;;1.50;;
23718;SDS011;43322;52.230;5.702;2023-03-14T09:40:14;6.93;;;1.70;;
23718;SDS011;43322;52.230;5.702;2023-03-14T09:42:43;7.32;;;1.85;;
23718;SDS011;43322;52.230;5.702;2023-03-14T09:45:11;8.15;;;1.60;;
23718;SDS011;43322;52.230;5.702;2023-03-14T09:47:41;5.93;;;1.25;;
23718;SDS011;43322;52.230;5.702;2023-03-14T09:50:11;9.73;;;1.92;;
23718;SDS011;43322;52.230;5.702;2023-03-14T09:52:41;7.60;;;2.00;;
23718;SDS011;43322;52.230;5.702;2023-03-14T09:55:12;9.57;;;2.30;;
23718;SDS011;43322;52.230;5.702;2023-03-14T09:57:41;12.35;;;2.70;;
23718;SDS011;43322;52.230;5.702;2023-03-14T10:00:13;17.05;;;3.50;;
23718;SDS011;43322;52.230;5.702;2023-03-14T10:02:43;9.10;;;2.25;;
23718;SDS011;43322;52.230;5.702;2023-03-14T10:05:17;16.17;;;3.38;;
23718;SDS011;43322;52.230;5.702;2023-03-14T10:07:45;16.30;;;2.88;;
23718;SDS011;43322;52.230;5.702;2023-03-14T10:10:15;17.48;;;2.42;;
23718;SDS011;43322;52.230;5.702;2023-03-14T10:12:45;12.65;;;2.38;;
23718;SDS011;43322;52.230;5.702;2023-03-14T10:15:22;14.70;;;3.03;;
23718;SDS011;43322;52.230;5.702;2023-03-14T10:17:51;13.60;;;2.90;;
23718;SDS011;43322;52.230;5.702;2023-03-14T10:20:31;14.77;;;3.03;;
23718;SDS011;43322;52.230;5.702;2023-03-14T10:23:00;13.63;;;2.60;;
23718;SDS011;43322;52.230;5.702;2023-03-14T10:25:31;19.25;;;2.85;;
23718;SDS011;43322;52.230;5.702;2023-03-14T10:27:59;12.85;;;2.30;;
23718;SDS011;43322;52.230;5.702;2023-03-14T10:32:56;12.38;;;2.25;;
23718;SDS011;43322;52.230;5.702;2023-03-14T10:35:23;15.65;;;2.65;;
23718;SDS011;43322;52.230;5.702;2023-03-14T10:37:53;9.18;;;2.70;;
23718;SDS011;43322;52.230;5.702;2023-03-14T10:40:24;16.15;;;2.65;;
23718;SDS011;43322;52.230;5.702;2023-03-14T10:42:56;21.52;;;3.25;;
23718;SDS011;43322;52.230;5.702;2023-03-14T10:45:28;20.73;;;2.83;;
23718;SDS011;43322;52.230;5.702;2023-03-14T10:47:58;14.82;;;2.58;;
23718;SDS011;43322;52.230;5.702;2023-03-14T10:50:31;23.45;;;3.55;;
23718;SDS011;43322;52.230;5.702;2023-03-14T10:53:00;11.57;;;2.88;;
23718;SDS011;43322;52.230;5.702;2023-03-14T10:55:39;24.08;;;3.33;;
23718;SDS011;43322;52.230;5.702;2023-03-14T10:58:18;13.27;;;2.60;;
23718;SDS011;43322;52.230;5.702;2023-03-14T11:00:47;14.60;;;2.80;;
23718;SDS011;43322;52.230;5.702;2023-03-14T11:03:19;16.90;;;3.15;;
23718;SDS011;43322;52.230;5.702;2023-03-14T11:05:49;16.23;;;3.55;;
23718;SDS011;43322;52.230;5.702;2023-03-14T11:08:23;17.38;;;2.75;;
23718;SDS011;43322;52.230;5.702;2023-03-14T11:10:54;18.70;;;3.00;;
23718;SDS011;43322;52.230;5.702;2023-03-14T11:13:30;16.83;;;2.90;;
23718;SDS011;43322;52.230;5.702;2023-03-14T11:16:04;17.27;;;3.33;;
23718;SDS011;43322;52.230;5.702;2023-03-14T11:18:48;20.05;;;3.25;;
23718;SDS011;43322;52.230;5.702;2023-03-14T11:21:27;16.63;;;3.35;;
23718;SDS011;43322;52.230;5.702;2023-03-14T11:24:03;19.95;;;3.05;;
23718;SDS011;43322;52.230;5.702;2023-03-14T11:26:40;13.57;;;2.85;;
23718;SDS011;43322;52.230;5.702;2023-03-14T11:29:19;20.50;;;2.80;;
23718;SDS011;43322;52.230;5.702;2023-03-14T11:31:51;16.08;;;3.20;;
23718;SDS011;43322;52.230;5.702;2023-03-14T11:34:22;10.55;;;2.08;;
23718;SDS011;43322;52.230;5.702;2023-03-14T11:36:56;6.07;;;2.10;;
23718;SDS011;43322;52.230;5.702;2023-03-14T11:39:29;11.63;;;2.72;;
23718;SDS011;43322;52.230;5.702;2023-03-14T11:42:04;12.02;;;2.10;;
23718;SDS011;43322;52.230;5.702;2023-03-14T11:44:32;10.70;;;2.00;;
23718;SDS011;43322;52.230;5.702;2023-03-14T11:47:04;6.85;;;2.20;;
23718;SDS011;43322;52.230;5.702;2023-03-14T11:49:36;11.48;;;2.15;;
23718;SDS011;43322;52.230;5.702;2023-03-14T11:52:08;13.90;;;2.40;;
23718;SDS011;43322;52.230;5.702;2023-03-14T11:54:40;15.35;;;2.58;;
23718;SDS011;43322;52.230;5.702;2023-03-14T11:57:12;8.65;;;1.95;;
23718;SDS011;43322;52.230;5.702;2023-03-14T11:59:45;6.00;;;1.88;;
23718;SDS011;43322;52.230;5.702;2023-03-14T12:02:19;5.53;;;1.42;;
23718;SDS011;43322;52.230;5.702;2023-03-14T12:04:54;9.45;;;1.98;;
23718;SDS011;43322;52.230;5.702;2023-03-14T12:07:30;5.85;;;1.77;;
23718;SDS011;43322;52.230;5.702;2023-03-14T12:10:05;3.78;;;1.73;;
23718;SDS011;43322;52.230;5.702;2023-03-14T12:12:32;5.15;;;2.20;;
23718;SDS011;43322;52.230;5.702;2023-03-14T12:15:02;10.68;;;2.10;;
23718;SDS011;43322;52.230;5.702;2023-03-14T12:17:34;6.80;;;1.60;;
23718;SDS011;43322;52.230;5.702;2023-03-14T12:20:04;10.02;;;2.17;;
23718;SDS011;43322;52.230;5.702;2023-03-14T12:22:41;8.30;;;1.90;;
23718;SDS011;43322;52.230;5.702;2023-03-14T12:25:14;4.57;;;1.83;;
23718;SDS011;43322;52.230;5.702;2023-03-14T12:27:45;12.55;;;2.63;;
23718;SDS011;43322;52.230;5.702;2023-03-14T12:30:29;6.47;;;1.85;;
23718;SDS011;43322;52.230;5.702;2023-03-14T12:36:02;11.68;;;1.85;;
23718;SDS011;43322;52.230;5.702;2023-03-14T12:38:39;7.15;;;1.85;;
23718;SDS011;43322;52.230;5.702;2023-03-14T12:41:14;8.15;;;1.98;;
23718;SDS011;43322;52.230;5.702;2023-03-14T12:43:46;4.93;;;1.83;;
23718;SDS011;43322;52.230;5.702;2023-03-14T12:46:21;6.00;;;1.92;;
23718;SDS011;43322;52.230;5.702;2023-03-14T12:48:49;7.43;;;1.52;;
23718;SDS011;43322;52.230;5.702;2023-03-14T12:51:20;2.95;;;1.40;;
23718;SDS011;43322;52.230;5.702;2023-03-14T12:56:45;4.80;;;1.60;;
23718;SDS011;43322;52.230;5.702;2023-03-14T12:59:30;8.43;;;1.65;;
23718;SDS011;43322;52.230;5.702;2023-03-14T13:02:02;8.02;;;1.35;;
23718;SDS011;43322;52.230;5.702;2023-03-14T13:04:44;6.30;;;1.38;;
23718;SDS011;43322;52.230;5.702;2023-03-14T13:07:28;3.25;;;1.55;;
23718;SDS011;43322;52.230;5.702;2023-03-14T13:10:01;6.05;;;1.70;;
23718;SDS011;43322;52.230;5.702;2023-03-14T13:12:44;7.88;;;1.40;;
23718;SDS011;43322;52.230;5.702;2023-03-14T13:15:19;7.05;;;1.67;;
23718;SDS011;43322;52.230;5.702;2023-03-14T13:17:52;6.35;;;1.27;;
23718;SDS011;43322;52.230;5.702;2023-03-14T13:20:24;7.32;;;1.35;;
23718;SDS011;43322;52.230;5.702;2023-03-14T13:22:55;5.28;;;1.02;;
23718;SDS011;43322;52.230;5.702;2023-03-14T13:25:22;6.10;;;1.60;;
23718;SDS011;43322;52.230;5.702;2023-03-14T13:27:49;9.10;;;1.63;;
23718;SDS011;43322;52.230;5.702;2023-03-14T13:30:21;8.13;;;1.50;;
23718;SDS011;43322;52.230;5.702;2023-03-14T13:32:50;5.28;;;1.25;;
23718;SDS011;43322;52.230;5.702;2023-03-14T13:35:20;6.55;;;1.60;;
23718;SDS011;43322;52.230;5.702;2023-03-14T13:37:53;7.38;;;1.48;;
23718;SDS011;43322;52.230;5.702;2023-03-14T13:40:24;7.20;;;1.50;;
23718;SDS011;43322;52.230;5.702;2023-03-14T13:43:11;4.60;;;1.45;;
23718;SDS011;43322;52.230;5.702;2023-03-14T13:45:43;3.58;;;1.60;;
23718;SDS011;43322;52.230;5.702;2023-03-14T13:48:24;4.85;;;1.73;;
23718;SDS011;43322;52.230;5.702;2023-03-14T13:50:54;5.07;;;1.25;;
23718;SDS011;43322;52.230;5.702;2023-03-14T13:53:25;8.70;;;1.55;;
23718;SDS011;43322;52.230;5.702;2023-03-14T13:55:52;8.07;;;1.83;;
23718;SDS011;43322;52.230;5.702;2023-03-14T13:58:21;4.63;;;1.55;;
23718;SDS011;43322;52.230;5.702;2023-03-14T14:01:03;6.35;;;1.67;;
23718;SDS011;43322;52.230;5.702;2023-03-14T14:03:38;7.63;;;1.77;;
23718;SDS011;43322;52.230;5.702;2023-03-14T14:06:08;4.68;;;1.38;;
23718;SDS011;43322;52.230;5.702;2023-03-14T14:08:45;9.23;;;1.80;;
23718;SDS011;43322;52.230;5.702;2023-03-14T14:11:15;6.07;;;1.35;;
23718;SDS011;43322;52.230;5.702;2023-03-14T14:13:48;2.67;;;1.10;;
23718;SDS011;43322;52.230;5.702;2023-03-14T14:16:16;6.53;;;1.40;;
23718;SDS011;43322;52.230;5.702;2023-03-14T14:18:48;5.00;;;1.65;;
23718;SDS011;43322;52.230;5.702;2023-03-14T14:21:16;6.05;;;1.17;;
23718;SDS011;43322;52.230;5.702;2023-03-14T14:23:44;9.20;;;1.20;;
23718;SDS011;43322;52.230;5.702;2023-03-14T14:26:13;4.32;;;1.20;;
23718;SDS011;43322;52.230;5.702;2023-03-14T14:28:43;7.03;;;1.58;;
23718;SDS011;43322;52.230;5.702;2023-03-14T14:31:18;6.03;;;1.13;;
23718;SDS011;43322;52.230;5.702;2023-03-14T14:33:54;5.93;;;1.20;;
23718;SDS011;43322;52.230;5.702;2023-03-14T14:36:23;3.08;;;1.25;;
23718;SDS011;43322;52.230;5.702;2023-03-14T14:38:52;2.17;;;1.10;;
23718;SDS011;43322;52.230;5.702;2023-03-14T14:41:20;4.88;;;1.40;;
23718;SDS011;43322;52.230;5.702;2023-03-14T14:43:47;5.50;;;1.17;;
23718;SDS011;43322;52.230;5.702;2023-03-14T14:46:18;3.92;;;1.20;;
23718;SDS011;43322;52.230;5.702;2023-03-14T14:48:46;3.45;;;1.65;;
23718;SDS011;43322;52.230;5.702;2023-03-14T14:51:25;3.97;;;1.35;;
23718;SDS011;43322;52.230;5.702;2023-03-14T14:54:10;4.63;;;1.30;;
23718;SDS011;43322;52.230;5.702;2023-03-14T14:56:40;3.72;;;1.20;;
23718;SDS011;43322;52.230;5.702;2023-03-14T14:59:20;3.83;;;1.20;;
23718;SDS011;43322;52.230;5.702;2023-03-14T15:01:49;8.23;;;1.92;;
23718;SDS011;43322;52.230;5.702;2023-03-14T15:04:16;6.57;;;1.67;;
23718;SDS011;43322;52.230;5.702;2023-03-14T15:06:45;7.68;;;1.48;;
23718;SDS011;43322;52.230;5.702;2023-03-14T15:09:15;10.77;;;2.08;;
23718;SDS011;43322;52.230;5.702;2023-03-14T15:11:42;5.28;;;1.80;;